sensor_id;sensor_type;location;lat;lon;timestamp;pressure;altitude;pressure_sealevel;temperature;humidity
59367;BME280;45163;47.690;11.770;2022-09-09T00:01:47;93230.22;;;13.47;100.00
59367;BME280;45163;47.690;11.770;2022-09-09T00:04:15;93234.22;;;13.55;100.00
59367;BME280;45163;47.690;11.770;2022-09-09T00:09:39;93224.00;;;13.55;100.00
59367;BME280;45163;47.690;11.770;2022-09-09T00:12:29;93227.19;;;13.54;100.00
59367;BME280;45163;47.690;11.770;2022-09-09T00:15:38;93227.66;;;13.52;100.00
59367;BME280;45163;47.690;11.770;2022-09-09T00:21:11;93224.91;;;13.61;100.00
59367;BME280;45163;47.690;11.770;2022-09-09T00:23:40;93226.41;;;13.62;100.00
59367;BME280;45163;47.690;11.770;2022-09-09T00:26:26;93221.41;;;13.70;100.00
59367;BME280;45163;47.690;11.770;2022-09-09T00:29:01;93229.03;;;13.75;100.00
59367;BME280;45163;47.690;11.770;2022-09-09T00:31:31;93234.97;;;13.74;100.00
59367;BME280;45163;47.690;11.770;2022-09-09T00:34:02;93240.31;;;13.68;100.00
59367;BME280;45163;47.690;11.770;2022-09-09T00:36:32;93241.69;;;13.63;100.00
59367;BME280;45163;47.690;11.770;2022-09-09T00:39:01;93243.00;;;13.50;100.00
59367;BME280;45163;47.690;11.770;2022-09-09T00:50:10;93262.09;;;13.13;100.00
59367;BME280;45163;47.690;11.770;2022-09-09T00:57:52;93245.78;;;13.00;100.00
59367;BME280;45163;47.690;11.770;2022-09-09T01:00:29;93260.78;;;12.95;100.00
59367;BME280;45163;47.690;11.770;2022-09-09T01:10:51;93285.03;;;12.97;100.00
59367;BME280;45163;47.690;11.770;2022-09-09T01:13:26;93281.06;;;12.98;100.00
59367;BME280;45163;47.690;11.770;2022-09-09T01:15:58;93282.88;;;12.92;100.00
59367;BME280;45163;47.690;11.770;2022-09-09T01:18:43;93285.88;;;12.85;100.00
59367;BME280;45163;47.690;11.770;2022-09-09T01:24:35;93295.03;;;12.91;100.00
59367;BME280;45163;47.690;11.770;2022-09-09T01:27:05;93298.53;;;12.91;100.00
59367;BME280;45163;47.690;11.770;2022-09-09T01:29:32;93298.84;;;12.93;100.00
59367;BME280;45163;47.690;11.770;2022-09-09T01:32:40;93299.63;;;12.94;100.00
59367;BME280;45163;47.690;11.770;2022-09-09T01:38:08;93307.69;;;12.98;100.00
59367;BME280;45163;47.690;11.770;2022-09-09T01:40:35;93309.81;;;12.93;100.00
59367;BME280;45163;47.690;11.770;2022-09-09T01:43:07;93307.84;;;12.94;100.00
59367;BME280;45163;47.690;11.770;2022-09-09T01:45:33;93311.78;;;12.93;100.00
59367;BME280;45163;47.690;11.770;2022-09-09T01:48:00;93308.84;;;12.87;100.00
59367;BME280;45163;47.690;11.770;2022-09-09T01:50:26;93319.50;;;12.85;100.00
59367;BME280;45163;47.690;11.770;2022-09-09T01:52:55;93314.63;;;12.80;100.00
59367;BME280;45163;47.690;11.770;2022-09-09T01:55:39;93316.78;;;12.85;100.00
59367;BME280;45163;47.690;11.770;2022-09-09T01:58:16;93318.00;;;12.84;100.00
59367;BME280;45163;47.690;11.770;2022-09-09T02:01:14;93316.47;;;12.83;100.00
59367;BME280;45163;47.690;11.770;2022-09-09T02:03:35;93312.19;;;12.82;100.00
59367;BME280;45163;47.690;11.770;2022-09-09T02:08:41;93301.50;;;12.75;100.00
59367;BME280;45163;47.690;11.770;2022-09-09T02:11:23;93304.81;;;12.70;100.00
59367;BME280;45163;47.690;11.770;2022-09-09T02:13:53;93299.97;;;12.74;100.00
59367;BME280;45163;47.690;11.770;2022-09-09T02:16:34;93301.06;;;12.77;100.00
59367;BME280;45163;47.690;11.770;2022-09-09T02:21:40;93304.25;;;12.75;100.00
59367;BME280;45163;47.690;11.770;2022-09-09T02:24:09;93301.34;;;12.79;100.00
59367;BME280;45163;47.690;11.770;2022-09-09T02:26:40;93289.63;;;12.78;100.00
59367;BME280;45163;47.690;11.770;2022-09-09T02:29:22;93287.50;;;12.73;100.00
59367;BME280;45163;47.690;11.770;2022-09-09T02:31:51;93285.72;;;12.79;100.00
59367;BME280;45163;47.690;11.770;2022-09-09T02:34:21;93286.13;;;12.78;100.00
59367;BME280;45163;47.690;11.770;2022-09-09T02:36:50;93285.97;;;12.72;100.00
59367;BME280;45163;47.690;11.770;2022-09-09T02:39:19;93271.81;;;12.74;100.00
59367;BME280;45163;47.690;11.770;2022-09-09T02:41:45;93276.22;;;12.71;100.00
59367;BME280;45163;47.690;11.770;2022-09-09T02:44:13;93265.91;;;12.75;100.00
59367;BME280;45163;47.690;11.770;2022-09-09T02:52:19;93257.19;;;12.67;100.00
59367;BME280;45163;47.690;11.770;2022-09-09T02:54:47;93252.47;;;12.68;100.00
59367;BME280;45163;47.690;11.770;2022-09-09T02:57:27;93245.47;;;12.67;100.00
59367;BME280;45163;47.690;11.770;2022-09-09T02:59:57;93246.38;;;12.64;100.00
59367;BME280;45163;47.690;11.770;2022-09-09T03:02:23;93244.69;;;12.66;100.00
59367;BME280;45163;47.690;11.770;2022-09-09T03:04:50;93235.09;;;12.62;100.00
59367;BME280;45163;47.690;11.770;2022-09-09T03:07:18;93228.97;;;12.58;100.00
59367;BME280;45163;47.690;11.770;2022-09-09T03:09:45;93240.09;;;12.54;100.00
59367;BME280;45163;47.690;11.770;2022-09-09T03:12:11;93235.94;;;12.50;100.00
59367;BME280;45163;47.690;11.770;2022-09-09T03:14:38;93237.03;;;12.52;100.00
59367;BME280;45163;47.690;11.770;2022-09-09T03:17:07;93234.16;;;12.56;100.00
59367;BME280;45163;47.690;11.770;2022-09-09T03:19:34;93224.09;;;12.53;100.00
59367;BME280;45163;47.690;11.770;2022-09-09T03:22:01;93220.72;;;12.49;100.00
59367;BME280;45163;47.690;11.770;2022-09-09T03:24:30;93223.94;;;12.47;100.00
59367;BME280;45163;47.690;11.770;2022-09-09T03:26:56;93223.94;;;12.47;100.00
59367;BME280;45163;47.690;11.770;2022-09-09T03:29:21;93215.25;;;12.49;100.00
59367;BME280;45163;47.690;11.770;2022-09-09T03:31:47;93224.22;;;12.49;100.00
59367;BME280;45163;47.690;11.770;2022-09-09T03:34:13;93218.31;;;12.51;100.00
59367;BME280;45163;47.690;11.770;2022-09-09T03:36:39;93218.44;;;12.47;100.00
59367;BME280;45163;47.690;11.770;2022-09-09T03:39:06;93224.19;;;12.40;100.00
59367;BME280;45163;47.690;11.770;2022-09-09T03:41:32;93229.34;;;12.38;100.00
59367;BME280;45163;47.690;11.770;2022-09-09T03:43:59;93232.41;;;12.40;100.00
59367;BME280;45163;47.690;11.770;2022-09-09T03:46:26;93240.16;;;12.41;100.00
59367;BME280;45163;47.690;11.770;2022-09-09T03:48:52;93243.69;;;12.42;100.00
59367;BME280;45163;47.690;11.770;2022-09-09T03:51:18;93243.69;;;12.42;100.00
59367;BME280;45163;47.690;11.770;2022-09-09T03:53:45;93228.00;;;12.42;100.00
59367;BME280;45163;47.690;11.770;2022-09-09T03:56:11;93241.13;;;12.48;100.00
59367;BME280;45163;47.690;11.770;2022-09-09T03:58:37;93232.56;;;12.45;100.00
59367;BME280;45163;47.690;11.770;2022-09-09T04:01:06;93230.16;;;12.48;100.00
59367;BME280;45163;47.690;11.770;2022-09-09T04:03:34;93230.03;;;12.51;100.00
59367;BME280;45163;47.690;11.770;2022-09-09T04:06:02;93230.34;;;12.53;100.00
59367;BME280;45163;47.690;11.770;2022-09-09T04:08:29;93235.50;;;12.51;100.00
59367;BME280;45163;47.690;11.770;2022-09-09T04:10:58;93234.28;;;12.52;100.00
59367;BME280;45163;47.690;11.770;2022-09-09T04:13:25;93228.22;;;12.57;100.00
59367;BME280;45163;47.690;11.770;2022-09-09T04:15:56;93217.47;;;12.63;100.00
59367;BME280;45163;47.690;11.770;2022-09-09T04:18:23;93220.63;;;12.61;100.00
59367;BME280;45163;47.690;11.770;2022-09-09T04:20:50;93220.78;;;12.58;100.00
59367;BME280;45163;47.690;11.770;2022-09-09T04:23:17;93216.97;;;12.55;100.00
59367;BME280;45163;47.690;11.770;2022-09-09T04:25:46;93214.66;;;12.54;100.00
59367;BME280;45163;47.690;11.770;2022-09-09T04:28:13;93210.88;;;12.51;100.00
59367;BME280;45163;47.690;11.770;2022-09-09T04:30:40;93208.56;;;12.50;100.00
59367;BME280;45163;47.690;11.770;2022-09-09T04:33:07;93210.25;;;12.47;100.00
59367;BME280;45163;47.690;11.770;2022-09-09T04:35:33;93209.91;;;12.45;100.00
59367;BME280;45163;47.690;11.770;2022-09-09T04:37:59;93216.72;;;12.40;100.00
59367;BME280;45163;47.690;11.770;2022-09-09T04:40:25;93214.13;;;12.37;100.00
59367;BME280;45163;47.690;11.770;2022-09-09T04:42:51;93215.66;;;12.38;100.00
59367;BME280;45163;47.690;11.770;2022-09-09T04:45:17;93211.84;;;12.35;100.00
59367;BME280;45163;47.690;11.770;2022-09-09T04:47:44;93207.59;;;12.34;100.00
59367;BME280;45163;47.690;11.770;2022-09-09T04:50:10;93222.91;;;12.32;100.00
59367;BME280;45163;47.690;11.770;2022-09-09T04:52:36;93223.81;;;12.29;100.00
59367;BME280;45163;47.690;11.770;2022-09-09T04:55:02;93221.53;;;12.27;100.00
59367;BME280;45163;47.690;11.770;2022-09-09T04:57:28;93227.88;;;12.24;100.00
59367;BME280;45163;47.690;11.770;2022-09-09T04:59:54;93224.09;;;12.21;100.00
59367;BME280;45163;47.690;11.770;2022-09-09T05:02:20;93219.03;;;12.20;100.00
59367;BME280;45163;47.690;11.770;2022-09-09T05:04:46;93222.53;;;12.20;100.00
59367;BME280;45163;47.690;11.770;2022-09-09T05:07:12;93216.47;;;12.16;100.00
59367;BME280;45163;47.690;11.770;2022-09-09T05:09:40;93211.00;;;12.16;100.00
59367;BME280;45163;47.690;11.770;2022-09-09T05:12:06;93213.56;;;12.20;100.00
59367;BME280;45163;47.690;11.770;2022-09-09T05:14:32;93217.84;;;12.21;100.00
59367;BME280;45163;47.690;11.770;2022-09-09T05:16:58;93221.03;;;12.19;100.00
59367;BME280;45163;47.690;11.770;2022-09-09T05:19:24;93232.94;;;12.26;100.00
59367;BME280;45163;47.690;11.770;2022-09-09T05:21:50;93244.19;;;12.28;100.00
59367;BME280;45163;47.690;11.770;2022-09-09T05:24:19;93229.88;;;12.24;100.00
59367;BME280;45163;47.690;11.770;2022-09-09T05:26:45;93234.69;;;12.19;100.00
59367;BME280;45163;47.690;11.770;2022-09-09T05:29:11;93236.84;;;12.25;100.00
59367;BME280;45163;47.690;11.770;2022-09-09T05:31:37;93239.81;;;12.30;100.00
59367;BME280;45163;47.690;11.770;2022-09-09T05:34:03;93248.94;;;12.36;100.00
59367;BME280;45163;47.690;11.770;2022-09-09T05:36:29;93252.13;;;12.35;100.00
59367;BME280;45163;47.690;11.770;2022-09-09T05:38:55;93247.88;;;12.34;100.00
59367;BME280;45163;47.690;11.770;2022-09-09T05:41:21;93252.13;;;12.35;100.00
59367;BME280;45163;47.690;11.770;2022-09-09T05:43:48;93257.50;;;12.38;100.00
59367;BME280;45163;47.690;11.770;2022-09-09T05:46:19;93268.09;;;12.36;100.00
59367;BME280;45163;47.690;11.770;2022-09-09T05:48:47;93274.91;;;12.32;100.00
59367;BME280;45163;47.690;11.770;2022-09-09T05:51:15;93269.28;;;12.26;100.00
59367;BME280;45163;47.690;11.770;2022-09-09T05:53:44;93271.69;;;12.24;100.00
59367;BME280;45163;47.690;11.770;2022-09-09T05:56:12;93274.41;;;12.24;100.00
59367;BME280;45163;47.690;11.770;2022-09-09T05:58:41;93272.13;;;12.23;100.00
59367;BME280;45163;47.690;11.770;2022-09-09T06:01:12;93274.41;;;12.24;100.00
59367;BME280;45163;47.690;11.770;2022-09-09T06:03:40;93268.44;;;12.16;100.00
59367;BME280;45163;47.690;11.770;2022-09-09T06:06:09;93275.31;;;12.21;100.00
59367;BME280;45163;47.690;11.770;2022-09-09T06:08:37;93272.31;;;12.28;100.00
59367;BME280;45163;47.690;11.770;2022-09-09T06:11:11;93279.00;;;12.27;100.00
59367;BME280;45163;47.690;11.770;2022-09-09T06:13:38;93279.63;;;12.31;100.00
59367;BME280;45163;47.690;11.770;2022-09-09T06:16:13;93276.44;;;12.33;100.00
59367;BME280;45163;47.690;11.770;2022-09-09T06:18:40;93270.09;;;12.36;100.00
59367;BME280;45163;47.690;11.770;2022-09-09T06:21:11;93269.66;;;12.37;100.00
59367;BME280;45163;47.690;11.770;2022-09-09T06:23:39;93269.19;;;12.39;100.00
59367;BME280;45163;47.690;11.770;2022-09-09T06:26:09;93273.00;;;12.41;100.00
59367;BME280;45163;47.690;11.770;2022-09-09T06:28:36;93268.63;;;12.44;100.00
59367;BME280;45163;47.690;11.770;2022-09-09T06:31:04;93274.66;;;12.39;100.00
59367;BME280;45163;47.690;11.770;2022-09-09T06:33:32;93270.00;;;12.49;100.00
59367;BME280;45163;47.690;11.770;2022-09-09T06:36:01;93282.34;;;12.53;100.00
59367;BME280;45163;47.690;11.770;2022-09-09T06:38:29;93287.94;;;12.50;100.00
59367;BME280;45163;47.690;11.770;2022-09-09T06:40:57;93292.38;;;12.47;100.00
59367;BME280;45163;47.690;11.770;2022-09-09T06:43:25;93277.16;;;12.46;100.00
59367;BME280;45163;47.690;11.770;2022-09-09T06:45:58;93281.09;;;12.45;100.00
59367;BME280;45163;47.690;11.770;2022-09-09T06:48:25;93277.47;;;12.48;100.00
59367;BME280;45163;47.690;11.770;2022-09-09T06:51:09;93269.56;;;12.50;100.00
59367;BME280;45163;47.690;11.770;2022-09-09T06:53:38;93267.94;;;12.62;100.00
59367;BME280;45163;47.690;11.770;2022-09-09T06:58:40;93271.22;;;12.79;100.00
59367;BME280;45163;47.690;11.770;2022-09-09T07:01:11;93265.31;;;12.80;100.00
59367;BME280;45163;47.690;11.770;2022-09-09T07:03:41;93267.47;;;12.85;100.00
59367;BME280;45163;47.690;11.770;2022-09-09T07:06:15;93272.34;;;12.90;100.00
59367;BME280;45163;47.690;11.770;2022-09-09T07:08:43;93280.75;;;12.96;100.00
59367;BME280;45163;47.690;11.770;2022-09-09T07:11:09;93277.09;;;12.99;100.00
59367;BME280;45163;47.690;11.770;2022-09-09T07:13:36;93271.50;;;13.03;100.00
59367;BME280;45163;47.690;11.770;2022-09-09T07:16:08;93274.38;;;13.08;100.00
59367;BME280;45163;47.690;11.770;2022-09-09T07:18:34;93264.69;;;13.16;100.00
59367;BME280;45163;47.690;11.770;2022-09-09T07:21:02;93265.31;;;13.20;100.00
59367;BME280;45163;47.690;11.770;2022-09-09T07:23:30;93266.38;;;13.14;100.00
59367;BME280;45163;47.690;11.770;2022-09-09T07:25:57;93256.16;;;13.14;100.00
59367;BME280;45163;47.690;11.770;2022-09-09T07:28:24;93261.63;;;13.05;100.00
59367;BME280;45163;47.690;11.770;2022-09-09T07:30:58;93268.16;;;13.08;100.00
59367;BME280;45163;47.690;11.770;2022-09-09T07:33:25;93276.06;;;13.06;100.00
59367;BME280;45163;47.690;11.770;2022-09-09T07:35:52;93277.59;;;13.07;100.00
59367;BME280;45163;47.690;11.770;2022-09-09T07:38:19;93280.97;;;13.11;100.00
59367;BME280;45163;47.690;11.770;2022-09-09T07:40:46;93279.16;;;13.17;100.00
59367;BME280;45163;47.690;11.770;2022-09-09T07:43:12;93281.00;;;13.20;100.00
59367;BME280;45163;47.690;11.770;2022-09-09T07:45:38;93292.00;;;13.29;100.00
59367;BME280;45163;47.690;11.770;2022-09-09T07:48:09;93292.31;;;13.31;100.00
59367;BME280;45163;47.690;11.770;2022-09-09T07:50:35;93288.50;;;13.29;100.00
59367;BME280;45163;47.690;11.770;2022-09-09T07:53:01;93289.94;;;13.42;100.00
59367;BME280;45163;47.690;11.770;2022-09-09T07:55:28;93296.34;;;13.49;100.00
59367;BME280;45163;47.690;11.770;2022-09-09T07:57:55;93292.56;;;13.55;100.00
59367;BME280;45163;47.690;11.770;2022-09-09T08:00:24;93297.53;;;13.38;100.00
59367;BME280;45163;47.690;11.770;2022-09-09T08:02:50;93290.56;;;13.47;100.00
59367;BME280;45163;47.690;11.770;2022-09-09T08:05:16;93289.94;;;13.42;100.00
59367;BME280;45163;47.690;11.770;2022-09-09T08:07:43;93292.69;;;13.42;100.00
59367;BME280;45163;47.690;11.770;2022-09-09T08:10:09;93286.72;;;13.44;100.00
59367;BME280;45163;47.690;11.770;2022-09-09T08:12:36;93296.81;;;13.47;100.00
59367;BME280;45163;47.690;11.770;2022-09-09T08:15:02;93311.13;;;13.51;100.00
59367;BME280;45163;47.690;11.770;2022-09-09T08:17:28;93315.03;;;13.41;100.00
59367;BME280;45163;47.690;11.770;2022-09-09T08:19:54;93306.28;;;13.64;100.00
59367;BME280;45163;47.690;11.770;2022-09-09T08:22:20;93314.03;;;13.66;100.00
59367;BME280;45163;47.690;11.770;2022-09-09T08:24:47;93304.56;;;13.58;100.00
59367;BME280;45163;47.690;11.770;2022-09-09T08:27:13;93308.88;;;13.59;100.00
59367;BME280;45163;47.690;11.770;2022-09-09T08:29:39;93308.25;;;13.55;100.00
59367;BME280;45163;47.690;11.770;2022-09-09T08:32:05;93315.53;;;13.58;100.00
59367;BME280;45163;47.690;11.770;2022-09-09T08:34:32;93321.97;;;13.64;100.00
59367;BME280;45163;47.690;11.770;2022-09-09T08:36:58;93323.50;;;13.74;100.00
59367;BME280;45163;47.690;11.770;2022-09-09T08:39:26;93322.19;;;13.88;100.00
59367;BME280;45163;47.690;11.770;2022-09-09T08:45:03;93332.09;;;13.94;100.00
59367;BME280;45163;47.690;11.770;2022-09-09T08:47:37;93335.16;;;13.97;100.00
59367;BME280;45163;47.690;11.770;2022-09-09T08:53:24;93342.28;;;13.76;100.00
59367;BME280;45163;47.690;11.770;2022-09-09T08:55:56;93349.69;;;13.66;100.00
59367;BME280;45163;47.690;11.770;2022-09-09T09:11:35;93365.41;;;13.25;100.00
59367;BME280;45163;47.690;11.770;2022-09-09T09:14:09;93374.16;;;13.20;100.00
59367;BME280;45163;47.690;11.770;2022-09-09T09:16:54;93375.84;;;13.17;100.00
59367;BME280;45163;47.690;11.770;2022-09-09T09:19:22;93379.03;;;13.16;100.00
59367;BME280;45163;47.690;11.770;2022-09-09T09:24:49;93383.50;;;13.23;100.00
59367;BME280;45163;47.690;11.770;2022-09-09T09:27:31;93385.19;;;13.29;100.00
59367;BME280;45163;47.690;11.770;2022-09-09T09:29:59;93388.56;;;13.33;100.00
59367;BME280;45163;47.690;11.770;2022-09-09T09:32:29;93392.25;;;13.30;100.00
59367;BME280;45163;47.690;11.770;2022-09-09T09:34:58;93387.94;;;13.29;100.00
59367;BME280;45163;47.690;11.770;2022-09-09T09:37:32;93387.88;;;13.20;100.00
59367;BME280;45163;47.690;11.770;2022-09-09T09:40:15;93390.53;;;13.24;100.00
59367;BME280;45163;47.690;11.770;2022-09-09T09:43:16;93397.09;;;13.26;100.00
59367;BME280;45163;47.690;11.770;2022-09-09T09:45:45;93391.06;;;13.18;100.00
59367;BME280;45163;47.690;11.770;2022-09-09T09:48:13;93395.03;;;13.17;100.00
59367;BME280;45163;47.690;11.770;2022-09-09T09:50:49;93398.78;;;13.11;100.00
59367;BME280;45163;47.690;11.770;2022-09-09T09:53:34;93397.88;;;13.05;100.00
59367;BME280;45163;47.690;11.770;2022-09-09T09:56:11;93386.63;;;13.12;100.00
59367;BME280;45163;47.690;11.770;2022-09-09T10:03:52;93367.09;;;13.32;100.00
59367;BME280;45163;47.690;11.770;2022-09-09T10:06:32;93364.06;;;13.30;100.00
59367;BME280;45163;47.690;11.770;2022-09-09T10:09:02;93365.75;;;13.36;100.00
59367;BME280;45163;47.690;11.770;2022-09-09T10:14:42;93381.31;;;13.39;100.00
59367;BME280;45163;47.690;11.770;2022-09-09T10:22:50;93369.44;;;13.42;100.00
59367;BME280;45163;47.690;11.770;2022-09-09T10:36:44;93373.75;;;13.53;100.00
59367;BME280;45163;47.690;11.770;2022-09-09T10:39:18;93373.13;;;13.58;100.00
59367;BME280;45163;47.690;11.770;2022-09-09T10:42:02;93380.78;;;13.63;100.00
59367;BME280;45163;47.690;11.770;2022-09-09T10:55:06;93368.75;;;13.60;100.00
59367;BME280;45163;47.690;11.770;2022-09-09T10:58:04;93369.09;;;13.72;100.00
59367;BME280;45163;47.690;11.770;2022-09-09T11:00:44;93368.13;;;13.65;100.00
59367;BME280;45163;47.690;11.770;2022-09-09T11:03:21;93361.59;;;13.63;100.00
59367;BME280;45163;47.690;11.770;2022-09-09T11:05:57;93358.41;;;13.74;100.00
59367;BME280;45163;47.690;11.770;2022-09-09T11:08:31;93373.84;;;13.80;100.00
59367;BME280;45163;47.690;11.770;2022-09-09T11:11:11;93368.97;;;13.84;100.00
59367;BME280;45163;47.690;11.770;2022-09-09T11:13:44;93375.81;;;13.80;100.00
59367;BME280;45163;47.690;11.770;2022-09-09T11:16:15;93363.78;;;13.86;100.00
59367;BME280;45163;47.690;11.770;2022-09-09T11:18:46;93364.56;;;13.96;100.00
59367;BME280;45163;47.690;11.770;2022-09-09T11:21:29;93367.75;;;13.94;100.00
59367;BME280;45163;47.690;11.770;2022-09-09T11:24:02;93365.97;;;14.01;100.00
59367;BME280;45163;47.690;11.770;2022-09-09T11:26:36;93366.09;;;14.06;100.00
59367;BME280;45163;47.690;11.770;2022-09-09T11:29:23;93354.22;;;14.09;100.00
59367;BME280;45163;47.690;11.770;2022-09-09T11:35:11;93357.88;;;14.06;100.00
59367;BME280;45163;47.690;11.770;2022-09-09T11:40:19;93348.13;;;14.14;100.00
59367;BME280;45163;47.690;11.770;2022-09-09T11:42:48;93340.31;;;14.04;100.00
59367;BME280;45163;47.690;11.770;2022-09-09T11:45:25;93343.41;;;14.15;100.00
59367;BME280;45163;47.690;11.770;2022-09-09T11:47:54;93340.22;;;14.26;100.00
59367;BME280;45163;47.690;11.770;2022-09-09T11:52:48;93356.41;;;14.51;100.00
59367;BME280;45163;47.690;11.770;2022-09-09T11:55:34;93348.47;;;14.72;100.00
59367;BME280;45163;47.690;11.770;2022-09-09T11:58:15;93357.44;;;14.81;100.00
59367;BME280;45163;47.690;11.770;2022-09-09T12:00:47;93351.31;;;14.86;100.00
59367;BME280;45163;47.690;11.770;2022-09-09T12:06:27;93355.50;;;15.24;100.00
59367;BME280;45163;47.690;11.770;2022-09-09T12:08:58;93357.56;;;15.48;100.00
59367;BME280;45163;47.690;11.770;2022-09-09T12:11:31;93355.22;;;15.64;100.00
59367;BME280;45163;47.690;11.770;2022-09-09T12:13:59;93355.19;;;15.74;100.00
59367;BME280;45163;47.690;11.770;2022-09-09T12:16:33;93353.06;;;15.68;100.00
59367;BME280;45163;47.690;11.770;2022-09-09T12:24:10;93340.56;;;15.91;100.00
59367;BME280;45163;47.690;11.770;2022-09-09T12:26:52;93335.47;;;15.99;100.00
59367;BME280;45163;47.690;11.770;2022-09-09T12:32:25;93330.34;;;15.83;100.00
59367;BME280;45163;47.690;11.770;2022-09-09T12:35:09;93327.78;;;15.79;100.00
59367;BME280;45163;47.690;11.770;2022-09-09T12:37:49;93330.13;;;15.62;100.00
59367;BME280;45163;47.690;11.770;2022-09-09T12:40:25;93335.81;;;15.59;100.00
59367;BME280;45163;47.690;11.770;2022-09-09T12:42:51;93325.16;;;15.52;100.00
59367;BME280;45163;47.690;11.770;2022-09-09T12:45:20;93335.56;;;15.48;100.00
59367;BME280;45163;47.690;11.770;2022-09-09T12:48:00;93341.72;;;15.42;100.00
59367;BME280;45163;47.690;11.770;2022-09-09T12:50:35;93333.31;;;15.37;100.00
59367;BME280;45163;47.690;11.770;2022-09-09T12:53:25;93333.81;;;15.26;100.00
59367;BME280;45163;47.690;11.770;2022-09-09T12:58:26;93332.91;;;15.20;100.00
59367;BME280;45163;47.690;11.770;2022-09-09T13:00:55;93333.66;;;15.20;100.00
59367;BME280;45163;47.690;11.770;2022-09-09T13:03:27;93338.41;;;15.20;100.00
59367;BME280;45163;47.690;11.770;2022-09-09T13:05:53;93338.72;;;15.22;100.00
59367;BME280;45163;47.690;11.770;2022-09-09T13:08:24;93328.91;;;15.30;100.00
59367;BME280;45163;47.690;11.770;2022-09-09T13:11:01;93322.78;;;15.35;100.00
59367;BME280;45163;47.690;11.770;2022-09-09T13:13:41;93329.78;;;15.36;100.00
59367;BME280;45163;47.690;11.770;2022-09-09T13:16:31;93334.06;;;15.37;100.00
59367;BME280;45163;47.690;11.770;2022-09-09T13:19:08;93330.72;;;15.33;100.00
59367;BME280;45163;47.690;11.770;2022-09-09T13:21:37;93318.50;;;15.34;100.00
59367;BME280;45163;47.690;11.770;2022-09-09T13:24:06;93319.66;;;15.52;100.00
59367;BME280;45163;47.690;11.770;2022-09-09T13:26:34;93316.53;;;15.68;100.00
59367;BME280;45163;47.690;11.770;2022-09-09T13:29:19;93309.16;;;15.74;100.00
59367;BME280;45163;47.690;11.770;2022-09-09T13:31:45;93309.50;;;15.91;100.00
59367;BME280;45163;47.690;11.770;2022-09-09T13:34:28;93301.19;;;16.00;100.00
59367;BME280;45163;47.690;11.770;2022-09-09T13:37:01;93294.81;;;15.94;100.00
59367;BME280;45163;47.690;11.770;2022-09-09T13:39:33;93288.06;;;15.95;100.00
59367;BME280;45163;47.690;11.770;2022-09-09T13:42:01;93288.25;;;15.91;100.00
59367;BME280;45163;47.690;11.770;2022-09-09T13:44:34;93293.47;;;15.89;100.00
59367;BME280;45163;47.690;11.770;2022-09-09T13:49:47;93274.22;;;15.89;100.00
59367;BME280;45163;47.690;11.770;2022-09-09T13:52:17;93277.63;;;15.84;100.00
59367;BME280;45163;47.690;11.770;2022-09-09T13:54:52;93272.09;;;15.84;100.00
59367;BME280;45163;47.690;11.770;2022-09-09T13:57:24;93275.06;;;15.96;100.00
59367;BME280;45163;47.690;11.770;2022-09-09T13:59:52;93278.88;;;15.98;100.00
59367;BME280;45163;47.690;11.770;2022-09-09T14:02:20;93280.22;;;16.03;100.00
59367;BME280;45163;47.690;11.770;2022-09-09T14:04:48;93269.25;;;16.17;100.00
59367;BME280;45163;47.690;11.770;2022-09-09T14:07:17;93267.28;;;16.18;100.00
59367;BME280;45163;47.690;11.770;2022-09-09T14:09:44;93266.22;;;16.15;100.00
59367;BME280;45163;47.690;11.770;2022-09-09T14:12:11;93269.13;;;16.12;100.00
59367;BME280;45163;47.690;11.770;2022-09-09T14:14:38;93264.69;;;16.14;100.00
59367;BME280;45163;47.690;11.770;2022-09-09T14:17:04;93274.75;;;16.17;100.00
59367;BME280;45163;47.690;11.770;2022-09-09T14:19:30;93277.28;;;16.30;100.00
59367;BME280;45163;47.690;11.770;2022-09-09T14:21:57;93273.59;;;16.48;100.00
59367;BME280;45163;47.690;11.770;2022-09-09T14:24:24;93270.63;;;16.37;100.00
59367;BME280;45163;47.690;11.770;2022-09-09T14:26:51;93277.38;;;16.36;100.00
59367;BME280;45163;47.690;11.770;2022-09-09T14:29:17;93263.50;;;16.30;100.00
59367;BME280;45163;47.690;11.770;2022-09-09T14:31:43;93274.69;;;16.27;100.00
59367;BME280;45163;47.690;11.770;2022-09-09T14:34:09;93274.88;;;16.23;100.00
59367;BME280;45163;47.690;11.770;2022-09-09T14:36:39;93273.63;;;16.09;100.00
59367;BME280;45163;47.690;11.770;2022-09-09T14:39:06;93271.13;;;16.11;100.00
59367;BME280;45163;47.690;11.770;2022-09-09T14:41:32;93277.41;;;16.12;100.00
59367;BME280;45163;47.690;11.770;2022-09-09T14:43:58;93276.38;;;16.09;100.00
59367;BME280;45163;47.690;11.770;2022-09-09T14:46:28;93284.91;;;16.11;100.00
59367;BME280;45163;47.690;11.770;2022-09-09T14:48:54;93273.22;;;16.16;100.00
59367;BME280;45163;47.690;11.770;2022-09-09T14:51:22;93265.47;;;16.30;100.00
59367;BME280;45163;47.690;11.770;2022-09-09T14:53:53;93277.47;;;16.41;100.00
59367;BME280;45163;47.690;11.770;2022-09-09T14:56:21;93271.84;;;16.51;100.00
59367;BME280;45163;47.690;11.770;2022-09-09T14:58:48;93263.97;;;16.58;100.00
59367;BME280;45163;47.690;11.770;2022-09-09T15:01:17;93269.81;;;16.60;100.00
59367;BME280;45163;47.690;11.770;2022-09-09T15:03:50;93267.94;;;16.42;100.00
59367;BME280;45163;47.690;11.770;2022-09-09T15:06:17;93257.19;;;16.15;100.00
59367;BME280;45163;47.690;11.770;2022-09-09T15:08:44;93251.91;;;16.26;100.00